createdAt,value
2022-10-15T00:01:08.002Z,10.73
2022-10-15T00:03:37.903Z,10.73
2022-10-15T00:06:07.504Z,10.73
2022-10-15T00:08:37.204Z,10.72
2022-10-15T00:11:09.852Z,10.73
2022-10-15T00:13:38.651Z,10.75
2022-10-15T00:16:09.488Z,10.77
2022-10-15T00:18:37.480Z,10.76
2022-10-15T00:21:08.804Z,10.77
2022-10-15T00:23:39.055Z,10.72
2022-10-15T00:26:09.133Z,10.73
2022-10-15T00:28:37.609Z,10.75
2022-10-15T00:31:08.209Z,10.77
2022-10-15T00:33:36.695Z,10.76
2022-10-15T00:36:06.962Z,10.76
2022-10-15T00:38:35.130Z,10.73
2022-10-15T00:41:06.242Z,10.76
2022-10-15T00:43:43.965Z,10.75
2022-10-15T00:46:23.808Z,10.74
2022-10-15T00:48:55.769Z,10.71
2022-10-15T00:51:27.328Z,10.66
2022-10-15T00:53:55.212Z,10.59
2022-10-15T00:56:28.655Z,10.53
2022-10-15T00:58:57.344Z,10.51
2022-10-15T01:01:26.388Z,10.47
2022-10-15T01:03:56.755Z,10.46
2022-10-15T01:06:25.851Z,10.43
2022-10-15T01:08:53.938Z,10.45
2022-10-15T01:11:39.916Z,10.44
2022-10-15T01:14:19.559Z,10.43
2022-10-15T01:16:51.834Z,10.40
2022-10-15T01:19:32.969Z,10.40
2022-10-15T01:22:06.831Z,10.40
2022-10-15T01:24:59.816Z,10.37
2022-10-15T01:27:36.327Z,10.36
2022-10-15T01:30:26.998Z,10.34
2022-10-15T01:33:04.211Z,10.32
2022-10-15T01:35:42.992Z,10.31
2022-10-15T01:38:37.038Z,10.30
2022-10-15T01:41:11.466Z,10.25
2022-10-15T01:43:46.096Z,10.27
2022-10-15T01:46:20.700Z,10.19
2022-10-15T01:48:50.746Z,10.22
2022-10-15T01:51:20.615Z,10.21
2022-10-15T01:53:49.640Z,10.23
2022-10-15T01:56:23.587Z,10.21
2022-10-15T01:58:55.680Z,10.19
2022-10-15T02:01:25.001Z,10.14
2022-10-15T02:03:54.733Z,10.11
2022-10-15T02:06:31.101Z,10.10
2022-10-15T02:09:22.402Z,10.13
2022-10-15T02:12:01.294Z,10.13
2022-10-15T02:14:34.856Z,10.14
2022-10-15T02:17:09.605Z,10.12
2022-10-15T02:19:44.742Z,10.11
2022-10-15T02:22:16.949Z,10.08
2022-10-15T02:24:54.712Z,10.07
2022-10-15T02:27:25.303Z,10.09
2022-10-15T02:29:55.125Z,10.08
2022-10-15T02:32:26.740Z,10.08
2022-10-15T02:34:56.251Z,10.08
2022-10-15T02:37:27.019Z,10.06
2022-10-15T02:39:55.215Z,10.05
2022-10-15T02:42:23.678Z,10.07
2022-10-15T02:44:51.807Z,10.04
2022-10-15T02:47:19.746Z,10.04
2022-10-15T02:49:49.182Z,10.04
2022-10-15T02:52:17.067Z,10.04
2022-10-15T02:54:44.939Z,10.06
2022-10-15T02:57:12.805Z,10.05
2022-10-15T02:59:40.691Z,10.06
2022-10-15T03:02:08.550Z,10.08
2022-10-15T03:04:36.406Z,10.07
2022-10-15T03:07:05.641Z,10.09
2022-10-15T03:09:33.485Z,10.08
2022-10-15T03:12:01.310Z,10.07
2022-10-15T03:16:57.938Z,10.07
2022-10-15T03:19:26.256Z,10.05
2022-10-15T03:21:54.163Z,10.05
2022-10-15T03:24:23.388Z,10.06
2022-10-15T03:26:51.223Z,10.05
2022-10-15T03:29:19.065Z,10.07
2022-10-15T03:31:47.200Z,10.06
2022-10-15T03:34:15.041Z,10.07
2022-10-15T03:36:42.940Z,10.04
2022-10-15T03:39:12.208Z,10.05
2022-10-15T03:41:41.517Z,10.05
2022-10-15T03:44:10.123Z,10.11
2022-10-15T03:46:37.956Z,10.10
2022-10-15T03:49:06.408Z,10.11
2022-10-15T03:51:34.253Z,10.12
2022-10-15T03:54:02.182Z,10.13
2022-10-15T03:56:30.052Z,10.14
2022-10-15T03:58:59.314Z,10.16
2022-10-15T04:01:27.436Z,10.15
2022-10-15T04:03:55.826Z,10.15
2022-10-15T04:06:23.690Z,10.15
2022-10-15T04:11:19.394Z,10.17
2022-10-15T04:13:49.673Z,10.18
2022-10-15T04:16:19.016Z,10.20
2022-10-15T04:18:46.994Z,10.21
2022-10-15T04:21:14.904Z,10.23
2022-10-15T04:23:45.166Z,10.22
2022-10-15T04:26:13.056Z,10.23
2022-10-15T04:28:40.970Z,10.25
2022-10-15T04:31:09.399Z,10.23
2022-10-15T04:33:38.735Z,10.26
2022-10-15T04:36:09.071Z,10.27
2022-10-15T04:38:36.780Z,10.24
2022-10-15T04:41:06.809Z,10.25
2022-10-15T04:43:35.095Z,10.27
2022-10-15T04:46:06.485Z,10.27
2022-10-15T04:48:37.678Z,10.29
2022-10-15T04:51:10.851Z,10.28
2022-10-15T04:53:38.479Z,10.23
2022-10-15T04:56:08.779Z,10.24
2022-10-15T04:58:37.880Z,10.24
2022-10-15T05:01:08.104Z,10.26
2022-10-15T05:03:38.605Z,10.23
2022-10-15T05:06:12.689Z,10.24
2022-10-15T05:08:43.444Z,10.26
2022-10-15T05:11:13.970Z,10.26
2022-10-15T05:13:41.968Z,10.27
2022-10-15T05:16:11.220Z,10.28
2022-10-15T05:18:39.552Z,10.28
2022-10-15T05:21:07.931Z,10.32
2022-10-15T05:23:37.902Z,10.34
2022-10-15T05:26:08.268Z,10.35
2022-10-15T05:28:36.407Z,10.33
2022-10-15T05:31:09.051Z,10.36
2022-10-15T05:33:37.142Z,10.37
2022-10-15T05:36:12.795Z,10.38
2022-10-15T05:38:42.357Z,10.39
2022-10-15T05:41:10.247Z,10.39
2022-10-15T05:43:40.497Z,10.40
2022-10-15T05:46:09.918Z,10.41
2022-10-15T05:48:37.773Z,10.41
2022-10-15T05:51:08.502Z,10.42
2022-10-15T05:53:36.619Z,10.43
2022-10-15T05:56:06.502Z,10.45
2022-10-15T05:58:37.372Z,10.42
2022-10-15T06:01:07.990Z,10.43
2022-10-15T06:03:36.105Z,10.46
2022-10-15T06:06:04.071Z,10.48
2022-10-15T06:08:32.479Z,10.47
2022-10-15T06:11:08.463Z,10.49
2022-10-15T06:13:39.076Z,10.51
2022-10-15T06:16:07.642Z,10.54
2022-10-15T06:18:36.107Z,10.55
2022-10-15T06:21:04.152Z,10.58
2022-10-15T06:23:32.018Z,10.60
2022-10-15T06:26:03.606Z,10.63
2022-10-15T06:28:33.509Z,10.69
2022-10-15T06:31:03.771Z,10.72
2022-10-15T06:33:32.594Z,10.75
2022-10-15T06:36:05.679Z,10.79
2022-10-15T06:38:36.187Z,10.83
2022-10-15T06:41:06.019Z,10.86
2022-10-15T06:43:35.711Z,10.90
2022-10-15T06:46:04.589Z,10.91
2022-10-15T06:48:32.801Z,10.95
2022-10-15T06:51:01.441Z,10.97
2022-10-15T06:53:30.595Z,11.02
2022-10-15T06:55:59.289Z,11.06
2022-10-15T06:58:28.256Z,11.11
2022-10-15T07:01:02.564Z,11.16
2022-10-15T07:03:30.493Z,11.22
2022-10-15T07:06:03.543Z,11.27
2022-10-15T07:08:31.426Z,11.32
2022-10-15T07:10:59.588Z,11.36
2022-10-15T07:13:27.472Z,11.40
2022-10-15T07:15:56.104Z,11.43
2022-10-15T07:18:25.507Z,11.48
2022-10-15T07:20:53.349Z,11.50
2022-10-15T07:23:24.174Z,11.52
2022-10-15T07:25:55.468Z,11.53
2022-10-15T07:28:23.577Z,11.56
2022-10-15T07:30:51.539Z,11.61
2022-10-15T07:33:19.618Z,11.64
2022-10-15T07:35:48.851Z,11.68
2022-10-15T07:38:17.992Z,11.72
2022-10-15T07:40:48.948Z,11.78
2022-10-15T07:43:17.072Z,11.82
2022-10-15T07:45:49.846Z,11.90
2022-10-15T07:48:17.888Z,11.95
2022-10-15T07:50:45.797Z,12.03
2022-10-15T07:53:18.059Z,12.04
2022-10-15T07:55:48.551Z,12.02
2022-10-15T07:58:16.600Z,12.04
2022-10-15T08:00:44.884Z,12.05
2022-10-15T08:03:12.771Z,12.09
2022-10-15T08:05:40.613Z,12.10
2022-10-15T08:08:08.482Z,12.16
2022-10-15T08:10:38.396Z,12.23
2022-10-15T08:13:06.706Z,12.32
2022-10-15T08:15:35.058Z,12.35
2022-10-15T08:18:02.894Z,12.37
2022-10-15T08:20:30.854Z,12.43
2022-10-15T08:22:58.994Z,12.48
2022-10-15T08:25:26.877Z,12.54
2022-10-15T08:27:56.522Z,12.59
2022-10-15T08:30:24.502Z,12.65
2022-10-15T08:32:52.435Z,12.69
2022-10-15T08:35:20.333Z,12.69
2022-10-15T08:37:48.171Z,12.69
2022-10-15T08:40:17.141Z,12.72
2022-10-15T08:42:47.258Z,12.78
2022-10-15T08:45:19.644Z,12.84
2022-10-15T08:47:51.881Z,12.96
2022-10-15T08:50:29.129Z,13.16
2022-10-15T08:52:59.639Z,13.22
2022-10-15T08:55:30.849Z,13.27
2022-10-15T08:58:03.295Z,13.37
2022-10-15T09:00:41.520Z,13.44
2022-10-15T09:03:25.413Z,13.45
2022-10-15T09:06:02.921Z,13.53
2022-10-15T09:08:35.344Z,13.59
2022-10-15T09:11:09.448Z,13.66
2022-10-15T09:13:41.597Z,13.66
2022-10-15T09:16:16.276Z,13.61
2022-10-15T09:18:47.943Z,13.61
2022-10-15T09:21:16.920Z,13.62
2022-10-15T09:23:45.644Z,13.66
2022-10-15T09:26:26.543Z,13.69
2022-10-15T09:29:00.970Z,13.70
2022-10-15T09:31:40.368Z,13.74
2022-10-15T09:34:16.029Z,13.81
2022-10-15T09:36:51.017Z,13.80
2022-10-15T09:39:35.827Z,13.82
2022-10-15T09:42:17.813Z,13.84
2022-10-15T09:44:48.102Z,13.84
2022-10-15T09:47:19.248Z,13.81
2022-10-15T09:49:47.107Z,13.80
2022-10-15T09:52:22.956Z,13.79
2022-10-15T09:54:58.722Z,13.77
2022-10-15T09:57:27.707Z,13.81
2022-10-15T09:59:57.479Z,13.84
2022-10-15T10:02:27.539Z,13.84
2022-10-15T10:04:56.074Z,13.83
2022-10-15T10:07:33.163Z,13.82
2022-10-15T10:10:05.115Z,13.87
2022-10-15T10:12:36.185Z,13.88
2022-10-15T10:15:09.793Z,13.91
2022-10-15T10:17:39.186Z,13.98
2022-10-15T10:20:19.262Z,14.01
2022-10-15T10:22:51.277Z,14.07
2022-10-15T10:25:35.848Z,14.11
2022-10-15T10:28:17.307Z,14.15
2022-10-15T10:30:54.701Z,14.20
2022-10-15T10:33:28.729Z,14.30
2022-10-15T10:35:57.816Z,14.36
2022-10-15T10:38:27.823Z,14.41
2022-10-15T10:40:59.270Z,14.42
2022-10-15T10:43:28.799Z,14.43
2022-10-15T10:45:59.062Z,14.46
2022-10-15T10:48:30.891Z,14.45
2022-10-15T10:51:09.363Z,14.42
2022-10-15T10:53:47.575Z,14.37
2022-10-15T10:56:15.874Z,14.40
2022-10-15T10:58:43.956Z,14.43
2022-10-15T11:01:13.966Z,14.42
2022-10-15T11:03:49.379Z,14.50
2022-10-15T11:06:27.526Z,14.55
2022-10-15T11:09:08.163Z,14.55
2022-10-15T11:11:46.561Z,14.52
2022-10-15T11:14:24.769Z,14.46
2022-10-15T11:17:01.334Z,14.48
2022-10-15T11:22:43.446Z,14.44
2022-10-15T11:25:22.208Z,14.43
2022-10-15T11:28:01.318Z,14.45
2022-10-15T11:30:40.408Z,14.42
2022-10-15T11:33:22.946Z,14.44
2022-10-15T11:36:00.796Z,14.44
2022-10-15T11:38:41.975Z,14.44
2022-10-15T11:41:27.385Z,14.47
2022-10-15T11:44:21.529Z,14.44
2022-10-15T11:46:59.495Z,14.45
2022-10-15T11:49:40.644Z,14.43
2022-10-15T11:52:31.213Z,14.37
2022-10-15T11:55:04.143Z,14.34
2022-10-15T11:57:35.931Z,14.36
2022-10-15T12:00:11.102Z,14.36
2022-10-15T12:02:40.051Z,14.35
2022-10-15T12:05:10.513Z,14.37
2022-10-15T12:07:41.451Z,14.32
2022-10-15T12:10:27.125Z,14.35
2022-10-15T12:13:00.936Z,14.32
2022-10-15T12:15:36.778Z,14.26
2022-10-15T12:18:12.987Z,14.23
2022-10-15T12:20:43.530Z,14.23
2022-10-15T12:23:25.220Z,14.13
2022-10-15T12:25:53.538Z,14.14
2022-10-15T12:28:25.074Z,14.15
2022-10-15T12:31:01.168Z,14.15
2022-10-15T12:33:38.097Z,14.12
2022-10-15T12:36:10.677Z,14.09
2022-10-15T12:38:56.586Z,14.08
2022-10-15T12:41:38.141Z,14.08
2022-10-15T12:44:08.191Z,14.08
2022-10-15T12:46:39.305Z,14.06
2022-10-15T12:49:51.707Z,14.02
2022-10-15T12:52:58.744Z,14.01
2022-10-15T12:55:33.768Z,13.96
2022-10-15T12:58:03.901Z,13.97
2022-10-15T13:00:40.483Z,13.96
2022-10-15T13:03:25.643Z,13.92
2022-10-15T13:05:55.393Z,13.85
2022-10-15T13:08:25.689Z,13.81
2022-10-15T13:10:58.253Z,13.79
2022-10-15T13:13:28.977Z,13.77
2022-10-15T13:16:00.584Z,13.73
2022-10-15T13:18:31.496Z,13.71
2022-10-15T13:20:59.968Z,13.72
2022-10-15T13:23:32.829Z,13.75
2022-10-15T13:26:20.940Z,13.77
2022-10-15T13:28:50.041Z,13.78
2022-10-15T13:31:27.426Z,13.79
2022-10-15T13:34:01.624Z,13.77
2022-10-15T13:36:33.006Z,13.79
2022-10-15T13:39:04.966Z,13.77
2022-10-15T13:41:37.296Z,13.74
2022-10-15T13:44:05.877Z,13.75
2022-10-15T13:46:37.697Z,13.73
2022-10-15T13:49:12.327Z,13.73
2022-10-15T13:51:43.350Z,13.71
2022-10-15T13:54:16.216Z,13.72
2022-10-15T13:56:52.431Z,13.71
2022-10-15T13:59:21.256Z,13.69
2022-10-15T14:01:52.548Z,13.68
2022-10-15T14:04:23.224Z,13.68
2022-10-15T14:09:34.998Z,13.63
2022-10-15T14:12:06.865Z,13.63
2022-10-15T14:14:37.471Z,13.60
2022-10-15T14:17:07.738Z,13.62
2022-10-15T14:19:38.673Z,13.61
2022-10-15T14:22:07.646Z,13.60
2022-10-15T14:24:37.158Z,13.59
2022-10-15T14:27:15.792Z,13.59
2022-10-15T14:29:46.062Z,13.58
2022-10-15T14:32:26.168Z,13.56
2022-10-15T14:34:55.494Z,13.54
2022-10-15T14:37:41.357Z,13.54
2022-10-15T14:40:19.107Z,13.54
2022-10-15T14:42:50.025Z,13.53
2022-10-15T14:45:27.174Z,13.51
2022-10-15T14:47:57.271Z,13.50
2022-10-15T14:50:27.651Z,13.48
2022-10-15T14:52:56.317Z,13.44
2022-10-15T14:55:33.821Z,13.45
2022-10-15T14:58:09.095Z,13.47
2022-10-15T15:00:42.065Z,13.47
2022-10-15T15:03:16.904Z,13.46
2022-10-15T15:05:47.183Z,13.45
2022-10-15T15:08:15.584Z,13.42
2022-10-15T15:10:44.354Z,13.44
2022-10-15T15:13:20.314Z,13.41
2022-10-15T15:15:48.533Z,13.41
2022-10-15T15:18:16.793Z,13.41
2022-10-15T15:20:46.205Z,13.41
2022-10-15T15:23:19.885Z,13.40
2022-10-15T15:25:48.407Z,13.37
2022-10-15T15:28:20.636Z,13.35
2022-10-15T15:30:56.223Z,13.34
2022-10-15T15:33:24.124Z,13.36
2022-10-15T15:35:55.040Z,13.33
2022-10-15T15:38:30.907Z,13.30
2022-10-15T15:41:04.598Z,13.32
2022-10-15T15:43:33.823Z,13.32
2022-10-15T15:46:01.688Z,13.31
2022-10-15T15:48:29.575Z,13.31
2022-10-15T15:51:01.531Z,13.28
2022-10-15T15:53:29.361Z,13.28
2022-10-15T15:55:57.244Z,13.29
2022-10-15T15:58:25.183Z,13.28
2022-10-15T16:00:54.383Z,13.26
2022-10-15T16:03:22.221Z,13.27
2022-10-15T16:08:24.032Z,13.22
2022-10-15T16:10:51.893Z,13.19
2022-10-15T16:13:19.756Z,13.19
2022-10-15T16:15:47.583Z,13.16
2022-10-15T16:18:16.785Z,13.15
2022-10-15T16:20:48.499Z,13.13
2022-10-15T16:23:17.373Z,13.10
2022-10-15T16:25:45.315Z,13.13
2022-10-15T16:28:13.355Z,13.13
2022-10-15T16:30:41.214Z,13.11
2022-10-15T16:35:43.462Z,13.12
2022-10-15T16:38:11.340Z,13.10
2022-10-15T16:40:39.893Z,13.09
2022-10-15T16:43:07.708Z,13.11
2022-10-15T16:45:35.583Z,13.10
2022-10-15T16:48:03.419Z,13.09
2022-10-15T16:50:31.951Z,13.07
2022-10-15T16:53:01.171Z,13.04
2022-10-15T16:55:29.889Z,13.04
2022-10-15T16:57:58.707Z,13.01
2022-10-15T17:00:26.583Z,13.03
2022-10-15T17:02:55.126Z,13.01
2022-10-15T17:05:22.990Z,13.03
2022-10-15T17:07:50.822Z,13.01
2022-10-15T17:10:25.606Z,13.00
2022-10-15T17:12:53.754Z,13.00
2022-10-15T17:15:21.614Z,12.97
2022-10-15T17:17:49.841Z,12.93
2022-10-15T17:20:20.742Z,12.93
2022-10-15T17:22:48.619Z,12.92
2022-10-15T17:25:16.580Z,12.92
2022-10-15T17:27:45.835Z,12.91
2022-10-15T17:30:13.713Z,12.93
2022-10-15T17:32:41.557Z,12.93
2022-10-15T17:35:10.251Z,12.89
2022-10-15T17:37:39.850Z,12.90
2022-10-15T17:40:09.204Z,12.89
2022-10-15T17:42:42.487Z,12.90
2022-10-15T17:45:12.970Z,12.90
2022-10-15T17:47:40.626Z,12.87
2022-10-15T17:50:09.548Z,12.87
2022-10-15T17:52:37.403Z,12.89
2022-10-15T17:55:05.745Z,12.90
2022-10-15T17:57:33.592Z,12.91
2022-10-15T18:00:01.456Z,12.91
2022-10-15T18:02:30.743Z,12.91
2022-10-15T18:04:59.336Z,12.93
2022-10-15T18:07:27.697Z,12.94
2022-10-15T18:09:55.798Z,12.93
2022-10-15T18:12:23.654Z,12.96
2022-10-15T18:14:51.669Z,12.96
2022-10-15T18:17:19.707Z,12.95
2022-10-15T18:19:48.939Z,12.96
2022-10-15T18:22:18.081Z,12.93
2022-10-15T18:24:45.945Z,12.96
2022-10-15T18:27:13.800Z,12.95
2022-10-15T18:29:42.561Z,12.94
2022-10-15T18:32:10.460Z,12.94
2022-10-15T18:34:38.298Z,12.96
2022-10-15T18:37:07.539Z,12.95
2022-10-15T18:39:35.447Z,12.96
2022-10-15T18:42:03.277Z,12.96
2022-10-15T18:44:32.316Z,12.95
2022-10-15T18:47:00.187Z,12.97
2022-10-15T18:49:28.055Z,12.98
2022-10-15T18:51:56.157Z,12.98
2022-10-15T18:54:25.422Z,12.98
2022-10-15T18:56:53.888Z,12.97
2022-10-15T18:59:21.834Z,12.98
2022-10-15T19:01:50.874Z,12.99
2022-10-15T19:04:20.479Z,12.99
2022-10-15T19:06:49.828Z,12.98
2022-10-15T19:09:19.544Z,12.96
2022-10-15T19:11:50.588Z,12.95
2022-10-15T19:14:19.298Z,12.95
2022-10-15T19:16:48.464Z,12.96
2022-10-15T19:19:19.779Z,12.96
2022-10-15T19:21:49.859Z,12.97
2022-10-15T19:24:19.592Z,12.96
2022-10-15T19:26:49.541Z,12.96
2022-10-15T19:29:17.932Z,12.98
2022-10-15T19:31:47.590Z,12.97
2022-10-15T19:34:15.923Z,12.98
2022-10-15T19:36:46.469Z,12.99
2022-10-15T19:39:16.243Z,13.00
2022-10-15T19:41:45.866Z,12.97
2022-10-15T19:44:17.466Z,12.97
2022-10-15T19:46:46.669Z,12.97
2022-10-15T19:49:15.172Z,12.99
2022-10-15T19:51:43.235Z,12.96
2022-10-15T19:54:13.573Z,12.99
2022-10-15T19:56:41.487Z,13.01
2022-10-15T19:59:11.631Z,13.01
2022-10-15T20:01:40.989Z,13.00
2022-10-15T20:04:08.860Z,13.01
2022-10-15T20:06:38.984Z,13.03
2022-10-15T20:09:07.643Z,13.02
2022-10-15T20:11:35.656Z,13.01
2022-10-15T20:14:03.850Z,13.02
2022-10-15T20:16:33.481Z,13.03
2022-10-15T20:19:03.780Z,13.02
2022-10-15T20:21:32.186Z,13.03
2022-10-15T20:24:04.175Z,13.02
2022-10-15T20:26:32.552Z,13.03
2022-10-15T20:29:00.829Z,13.04
2022-10-15T20:31:32.830Z,13.05
2022-10-15T20:34:01.983Z,13.06
2022-10-15T20:36:31.198Z,13.07
2022-10-15T20:39:00.757Z,13.07
2022-10-15T20:41:28.862Z,13.08
2022-10-15T20:43:57.582Z,13.07
2022-10-15T20:46:28.564Z,13.07
2022-10-15T20:48:58.566Z,13.07
2022-10-15T20:51:28.634Z,13.07
2022-10-15T20:54:00.158Z,13.07
2022-10-15T20:56:28.129Z,13.06
2022-10-15T20:58:55.963Z,13.06
2022-10-15T21:01:23.873Z,13.05
2022-10-15T21:03:51.852Z,13.05
2022-10-15T21:06:20.679Z,13.01
2022-10-15T21:08:48.588Z,12.99
2022-10-15T21:11:17.880Z,12.99
2022-10-15T21:13:45.783Z,12.97
2022-10-15T21:16:13.734Z,12.96
2022-10-15T21:18:41.686Z,12.97
2022-10-15T21:21:12.099Z,12.97
2022-10-15T21:23:40.435Z,12.93
2022-10-15T21:26:10.124Z,12.96
2022-10-15T21:28:39.666Z,12.97
2022-10-15T21:31:08.521Z,12.97
2022-10-15T21:33:37.054Z,12.98
2022-10-15T21:36:12.657Z,13.00
2022-10-15T21:38:41.229Z,13.01
2022-10-15T21:41:09.442Z,13.01
2022-10-15T21:43:37.433Z,13.00
2022-10-15T21:46:08.637Z,13.00
2022-10-15T21:48:37.651Z,13.00
2022-10-15T21:51:06.408Z,12.97
2022-10-15T21:53:35.328Z,13.00
2022-10-15T21:56:05.660Z,13.02
2022-10-15T21:58:33.751Z,13.02
2022-10-15T22:01:13.450Z,13.02
2022-10-15T22:03:44.176Z,13.03
2022-10-15T22:06:12.985Z,13.04
2022-10-15T22:08:40.842Z,13.05
2022-10-15T22:11:10.625Z,13.06
2022-10-15T22:13:39.544Z,13.05
2022-10-15T22:16:10.074Z,13.05
2022-10-15T22:18:37.808Z,13.01
2022-10-15T22:21:15.240Z,13.03
2022-10-15T22:23:44.151Z,13.05
2022-10-15T22:26:12.259Z,13.06
2022-10-15T22:28:40.462Z,13.07
2022-10-15T22:31:12.431Z,13.09
2022-10-15T22:33:41.732Z,13.09
2022-10-15T22:36:18.352Z,13.10
2022-10-15T22:38:48.778Z,13.11
2022-10-15T22:41:17.023Z,13.07
2022-10-15T22:43:45.049Z,13.10
2022-10-15T22:46:14.473Z,13.09
2022-10-15T22:48:43.548Z,13.12
2022-10-15T22:51:13.999Z,13.11
2022-10-15T22:53:41.741Z,13.08
2022-10-15T22:56:14.050Z,13.09
2022-10-15T22:58:41.987Z,13.10
2022-10-15T23:01:15.305Z,13.11
2022-10-15T23:03:45.125Z,13.10
2022-10-15T23:06:14.022Z,13.10
2022-10-15T23:08:42.976Z,13.12
2022-10-15T23:11:13.835Z,13.12
2022-10-15T23:13:42.801Z,13.09
2022-10-15T23:16:15.734Z,13.11
2022-10-15T23:18:45.096Z,13.11
2022-10-15T23:21:15.951Z,13.13
2022-10-15T23:23:45.056Z,13.13
2022-10-15T23:26:13.744Z,13.15
2022-10-15T23:28:42.405Z,13.12
2022-10-15T23:31:17.862Z,13.14
2022-10-15T23:33:45.920Z,13.14
2022-10-15T23:36:14.127Z,13.13
2022-10-15T23:38:42.079Z,13.16
2022-10-15T23:41:10.536Z,13.15
2022-10-15T23:43:38.598Z,13.14
2022-10-15T23:46:06.785Z,13.17
2022-10-15T23:48:36.035Z,13.16
2022-10-15T23:51:04.006Z,13.17
2022-10-15T23:53:33.528Z,13.17
2022-10-15T23:56:03.801Z,13.16
2022-10-15T23:58:32.184Z,13.15
